sensor_id;sensor_type;location;lat;lon;timestamp;temperature;humidity
70734;DHT22;58320;48.804;9.252;2023-11-19T00:01:56;7.80;99.90
70734;DHT22;58320;48.804;9.252;2023-11-19T00:04:22;7.80;99.90
70734;DHT22;58320;48.804;9.252;2023-11-19T00:06:48;7.80;99.90
70734;DHT22;58320;48.804;9.252;2023-11-19T00:09:14;7.90;99.90
70734;DHT22;58320;48.804;9.252;2023-11-19T00:11:42;7.90;99.90
70734;DHT22;58320;48.804;9.252;2023-11-19T00:14:07;7.90;99.90
70734;DHT22;58320;48.804;9.252;2023-11-19T00:16:34;7.90;99.90
70734;DHT22;58320;48.804;9.252;2023-11-19T00:19:00;7.90;99.90
70734;DHT22;58320;48.804;9.252;2023-11-19T00:21:25;7.90;99.90
70734;DHT22;58320;48.804;9.252;2023-11-19T00:23:54;7.90;99.90
70734;DHT22;58320;48.804;9.252;2023-11-19T00:26:19;7.90;99.90
70734;DHT22;58320;48.804;9.252;2023-11-19T00:28:45;7.90;99.90
70734;DHT22;58320;48.804;9.252;2023-11-19T00:31:13;8.00;99.90
70734;DHT22;58320;48.804;9.252;2023-11-19T00:33:39;8.00;99.90
70734;DHT22;58320;48.804;9.252;2023-11-19T00:36:05;8.00;99.90
70734;DHT22;58320;48.804;9.252;2023-11-19T00:38:31;8.10;99.90
70734;DHT22;58320;48.804;9.252;2023-11-19T00:40:57;8.10;99.90
70734;DHT22;58320;48.804;9.252;2023-11-19T00:43:23;8.10;99.90
70734;DHT22;58320;48.804;9.252;2023-11-19T00:45:49;8.10;99.90
70734;DHT22;58320;48.804;9.252;2023-11-19T00:48:16;8.20;99.90
70734;DHT22;58320;48.804;9.252;2023-11-19T00:50:42;8.20;99.90
70734;DHT22;58320;48.804;9.252;2023-11-19T00:53:10;8.30;99.90
70734;DHT22;58320;48.804;9.252;2023-11-19T00:55:36;8.30;99.90
70734;DHT22;58320;48.804;9.252;2023-11-19T00:58:01;8.30;99.90
70734;DHT22;58320;48.804;9.252;2023-11-19T01:00:28;8.30;99.90
70734;DHT22;58320;48.804;9.252;2023-11-19T01:02:54;8.30;99.90
70734;DHT22;58320;48.804;9.252;2023-11-19T01:05:20;8.30;99.90
70734;DHT22;58320;48.804;9.252;2023-11-19T01:07:49;8.40;99.90
70734;DHT22;58320;48.804;9.252;2023-11-19T01:10:15;8.40;99.90
70734;DHT22;58320;48.804;9.252;2023-11-19T01:12:42;8.50;99.90
70734;DHT22;58320;48.804;9.252;2023-11-19T01:15:08;8.50;99.90
70734;DHT22;58320;48.804;9.252;2023-11-19T01:17:34;8.50;99.90
70734;DHT22;58320;48.804;9.252;2023-11-19T01:19:59;8.50;99.90
70734;DHT22;58320;48.804;9.252;2023-11-19T01:22:25;8.50;99.90
70734;DHT22;58320;48.804;9.252;2023-11-19T01:24:51;8.50;99.90
70734;DHT22;58320;48.804;9.252;2023-11-19T01:27:17;8.60;99.90
70734;DHT22;58320;48.804;9.252;2023-11-19T01:29:43;8.60;99.90
70734;DHT22;58320;48.804;9.252;2023-11-19T01:32:09;8.60;99.90
70734;DHT22;58320;48.804;9.252;2023-11-19T01:34:34;8.60;99.90
70734;DHT22;58320;48.804;9.252;2023-11-19T01:37:01;8.60;99.90
70734;DHT22;58320;48.804;9.252;2023-11-19T01:39:26;8.60;99.90
70734;DHT22;58320;48.804;9.252;2023-11-19T01:41:52;8.60;99.90
70734;DHT22;58320;48.804;9.252;2023-11-19T01:44:19;8.70;99.90
70734;DHT22;58320;48.804;9.252;2023-11-19T01:46:46;8.70;99.90
70734;DHT22;58320;48.804;9.252;2023-11-19T01:49:15;8.70;99.90
70734;DHT22;58320;48.804;9.252;2023-11-19T01:51:43;8.70;99.90
70734;DHT22;58320;48.804;9.252;2023-11-19T01:54:09;8.70;99.90
70734;DHT22;58320;48.804;9.252;2023-11-19T01:56:36;8.80;99.90
70734;DHT22;58320;48.804;9.252;2023-11-19T01:59:03;8.80;99.90
70734;DHT22;58320;48.804;9.252;2023-11-19T02:01:29;8.80;99.90
70734;DHT22;58320;48.804;9.252;2023-11-19T02:03:55;8.80;99.90
70734;DHT22;58320;48.804;9.252;2023-11-19T02:06:24;8.80;99.90
70734;DHT22;58320;48.804;9.252;2023-11-19T02:08:50;8.80;99.90
70734;DHT22;58320;48.804;9.252;2023-11-19T02:11:15;8.90;99.90
70734;DHT22;58320;48.804;9.252;2023-11-19T02:13:41;8.90;99.90
70734;DHT22;58320;48.804;9.252;2023-11-19T02:16:09;8.90;99.90
70734;DHT22;58320;48.804;9.252;2023-11-19T02:18:36;9.00;99.90
70734;DHT22;58320;48.804;9.252;2023-11-19T02:21:02;9.00;99.90
70734;DHT22;58320;48.804;9.252;2023-11-19T02:23:28;9.00;99.90
70734;DHT22;58320;48.804;9.252;2023-11-19T02:28:42;9.00;99.90
70734;DHT22;58320;48.804;9.252;2023-11-19T02:31:08;9.10;99.90
70734;DHT22;58320;48.804;9.252;2023-11-19T02:33:35;9.10;99.90
70734;DHT22;58320;48.804;9.252;2023-11-19T02:36:03;9.10;99.90
70734;DHT22;58320;48.804;9.252;2023-11-19T02:38:30;9.10;99.90
70734;DHT22;58320;48.804;9.252;2023-11-19T02:40:56;9.20;99.90
70734;DHT22;58320;48.804;9.252;2023-11-19T02:43:22;9.20;99.90
70734;DHT22;58320;48.804;9.252;2023-11-19T02:45:48;9.20;99.90
70734;DHT22;58320;48.804;9.252;2023-11-19T02:48:14;9.20;99.90
70734;DHT22;58320;48.804;9.252;2023-11-19T02:50:41;9.20;99.90
70734;DHT22;58320;48.804;9.252;2023-11-19T02:53:07;9.30;99.90
70734;DHT22;58320;48.804;9.252;2023-11-19T02:55:33;9.30;99.90
70734;DHT22;58320;48.804;9.252;2023-11-19T02:58:03;9.30;99.90
70734;DHT22;58320;48.804;9.252;2023-11-19T03:00:35;9.40;99.90
70734;DHT22;58320;48.804;9.252;2023-11-19T03:03:02;9.40;99.90
70734;DHT22;58320;48.804;9.252;2023-11-19T03:05:46;9.40;99.90
70734;DHT22;58320;48.804;9.252;2023-11-19T03:08:12;9.40;99.90
70734;DHT22;58320;48.804;9.252;2023-11-19T03:10:38;9.40;99.90
70734;DHT22;58320;48.804;9.252;2023-11-19T03:13:04;9.40;99.90
70734;DHT22;58320;48.804;9.252;2023-11-19T03:15:30;9.40;99.90
70734;DHT22;58320;48.804;9.252;2023-11-19T03:17:55;9.40;99.90
70734;DHT22;58320;48.804;9.252;2023-11-19T03:20:21;9.40;99.90
70734;DHT22;58320;48.804;9.252;2023-11-19T03:22:49;9.40;99.90
70734;DHT22;58320;48.804;9.252;2023-11-19T03:25:16;9.50;99.90
70734;DHT22;58320;48.804;9.252;2023-11-19T03:27:41;9.50;99.90
70734;DHT22;58320;48.804;9.252;2023-11-19T03:30:08;9.50;99.90
70734;DHT22;58320;48.804;9.252;2023-11-19T03:32:38;9.50;99.90
70734;DHT22;58320;48.804;9.252;2023-11-19T03:35:05;9.50;99.90
70734;DHT22;58320;48.804;9.252;2023-11-19T03:37:34;9.50;99.90
70734;DHT22;58320;48.804;9.252;2023-11-19T03:40:00;9.50;99.90
70734;DHT22;58320;48.804;9.252;2023-11-19T03:42:29;9.60;99.90
70734;DHT22;58320;48.804;9.252;2023-11-19T03:44:56;9.60;99.90
70734;DHT22;58320;48.804;9.252;2023-11-19T03:47:22;9.60;99.90
70734;DHT22;58320;48.804;9.252;2023-11-19T03:49:51;9.60;99.90
70734;DHT22;58320;48.804;9.252;2023-11-19T03:52:18;9.60;99.90
70734;DHT22;58320;48.804;9.252;2023-11-19T03:54:44;9.70;99.90
70734;DHT22;58320;48.804;9.252;2023-11-19T03:57:13;9.70;99.90
70734;DHT22;58320;48.804;9.252;2023-11-19T03:59:41;9.70;99.90
70734;DHT22;58320;48.804;9.252;2023-11-19T04:03:49;9.70;99.90
70734;DHT22;58320;48.804;9.252;2023-11-19T04:06:14;9.70;99.90
70734;DHT22;58320;48.804;9.252;2023-11-19T04:08:40;9.80;99.90
70734;DHT22;58320;48.804;9.252;2023-11-19T04:11:06;9.80;99.90
70734;DHT22;58320;48.804;9.252;2023-11-19T04:13:34;9.80;99.90
70734;DHT22;58320;48.804;9.252;2023-11-19T04:16:00;9.80;99.90
70734;DHT22;58320;48.804;9.252;2023-11-19T04:18:26;9.80;99.90
70734;DHT22;58320;48.804;9.252;2023-11-19T04:20:52;9.80;99.90
70734;DHT22;58320;48.804;9.252;2023-11-19T04:23:18;9.80;99.90
70734;DHT22;58320;48.804;9.252;2023-11-19T04:25:43;9.80;99.90
70734;DHT22;58320;48.804;9.252;2023-11-19T04:28:09;9.80;99.90
70734;DHT22;58320;48.804;9.252;2023-11-19T04:30:35;9.90;99.90
70734;DHT22;58320;48.804;9.252;2023-11-19T04:33:01;9.90;99.90
70734;DHT22;58320;48.804;9.252;2023-11-19T04:35:26;9.90;99.90
70734;DHT22;58320;48.804;9.252;2023-11-19T04:37:52;9.90;99.90
70734;DHT22;58320;48.804;9.252;2023-11-19T04:40:18;9.90;99.90
70734;DHT22;58320;48.804;9.252;2023-11-19T04:42:43;9.90;99.90
70734;DHT22;58320;48.804;9.252;2023-11-19T04:45:09;10.00;99.90
70734;DHT22;58320;48.804;9.252;2023-11-19T04:47:36;10.00;99.90
70734;DHT22;58320;48.804;9.252;2023-11-19T04:50:02;10.00;99.90
70734;DHT22;58320;48.804;9.252;2023-11-19T04:52:29;10.00;99.90
70734;DHT22;58320;48.804;9.252;2023-11-19T04:54:54;10.10;99.90
70734;DHT22;58320;48.804;9.252;2023-11-19T04:57:20;10.10;99.90
70734;DHT22;58320;48.804;9.252;2023-11-19T04:59:46;10.10;99.90
70734;DHT22;58320;48.804;9.252;2023-11-19T05:02:12;10.10;99.90
70734;DHT22;58320;48.804;9.252;2023-11-19T05:04:42;10.20;99.90
70734;DHT22;58320;48.804;9.252;2023-11-19T05:07:09;10.20;99.90
70734;DHT22;58320;48.804;9.252;2023-11-19T05:09:35;10.30;99.90
70734;DHT22;58320;48.804;9.252;2023-11-19T05:12:01;10.30;99.90
70734;DHT22;58320;48.804;9.252;2023-11-19T05:14:27;10.40;99.90
70734;DHT22;58320;48.804;9.252;2023-11-19T05:16:53;10.50;99.90
70734;DHT22;58320;48.804;9.252;2023-11-19T05:19:18;10.50;99.90
70734;DHT22;58320;48.804;9.252;2023-11-19T05:21:44;10.60;99.90
70734;DHT22;58320;48.804;9.252;2023-11-19T05:24:11;10.60;99.90
70734;DHT22;58320;48.804;9.252;2023-11-19T05:26:39;10.70;99.90
70734;DHT22;58320;48.804;9.252;2023-11-19T05:29:05;10.60;99.90
70734;DHT22;58320;48.804;9.252;2023-11-19T05:31:31;10.70;99.90
70734;DHT22;58320;48.804;9.252;2023-11-19T05:33:57;10.70;99.90
70734;DHT22;58320;48.804;9.252;2023-11-19T05:36:22;10.70;99.90
70734;DHT22;58320;48.804;9.252;2023-11-19T05:38:48;10.70;99.90
70734;DHT22;58320;48.804;9.252;2023-11-19T05:41:14;10.80;99.90
70734;DHT22;58320;48.804;9.252;2023-11-19T05:43:40;10.80;99.90
70734;DHT22;58320;48.804;9.252;2023-11-19T05:46:06;10.80;99.90
70734;DHT22;58320;48.804;9.252;2023-11-19T05:48:33;10.80;99.90
70734;DHT22;58320;48.804;9.252;2023-11-19T05:50:58;10.80;99.90
70734;DHT22;58320;48.804;9.252;2023-11-19T05:53:25;10.90;99.90
70734;DHT22;58320;48.804;9.252;2023-11-19T05:55:51;10.90;99.90
70734;DHT22;58320;48.804;9.252;2023-11-19T05:58:26;11.00;99.90
70734;DHT22;58320;48.804;9.252;2023-11-19T06:00:55;11.00;99.90
70734;DHT22;58320;48.804;9.252;2023-11-19T06:03:23;11.00;99.90
70734;DHT22;58320;48.804;9.252;2023-11-19T06:05:49;11.10;99.90
70734;DHT22;58320;48.804;9.252;2023-11-19T06:08:16;11.10;99.90
70734;DHT22;58320;48.804;9.252;2023-11-19T06:10:42;11.20;99.90
70734;DHT22;58320;48.804;9.252;2023-11-19T06:13:08;11.20;99.90
70734;DHT22;58320;48.804;9.252;2023-11-19T06:15:36;11.20;99.90
70734;DHT22;58320;48.804;9.252;2023-11-19T06:18:02;11.20;99.90
70734;DHT22;58320;48.804;9.252;2023-11-19T06:20:32;11.20;99.90
70734;DHT22;58320;48.804;9.252;2023-11-19T06:22:58;11.10;99.90
70734;DHT22;58320;48.804;9.252;2023-11-19T06:25:24;11.00;99.90
70734;DHT22;58320;48.804;9.252;2023-11-19T06:27:51;10.90;99.90
70734;DHT22;58320;48.804;9.252;2023-11-19T06:30:17;10.80;99.90
70734;DHT22;58320;48.804;9.252;2023-11-19T06:32:43;10.80;99.90
70734;DHT22;58320;48.804;9.252;2023-11-19T06:35:09;10.80;99.90
70734;DHT22;58320;48.804;9.252;2023-11-19T06:37:38;10.80;99.90
70734;DHT22;58320;48.804;9.252;2023-11-19T06:40:04;10.80;99.90
70734;DHT22;58320;48.804;9.252;2023-11-19T06:42:30;10.90;99.90
70734;DHT22;58320;48.804;9.252;2023-11-19T06:44:56;10.90;99.90
70734;DHT22;58320;48.804;9.252;2023-11-19T06:47:26;10.90;99.90
70734;DHT22;58320;48.804;9.252;2023-11-19T06:49:53;10.90;99.90
70734;DHT22;58320;48.804;9.252;2023-11-19T06:52:19;11.00;99.90
70734;DHT22;58320;48.804;9.252;2023-11-19T06:54:45;11.00;99.90
70734;DHT22;58320;48.804;9.252;2023-11-19T06:57:11;11.00;99.90
70734;DHT22;58320;48.804;9.252;2023-11-19T06:59:37;11.10;99.90
70734;DHT22;58320;48.804;9.252;2023-11-19T07:02:03;11.20;99.90
70734;DHT22;58320;48.804;9.252;2023-11-19T07:04:30;11.20;99.90
70734;DHT22;58320;48.804;9.252;2023-11-19T07:06:56;11.20;99.90
70734;DHT22;58320;48.804;9.252;2023-11-19T07:09:22;11.20;99.90
70734;DHT22;58320;48.804;9.252;2023-11-19T07:11:49;11.20;99.90
70734;DHT22;58320;48.804;9.252;2023-11-19T07:14:17;11.20;99.90
70734;DHT22;58320;48.804;9.252;2023-11-19T07:16:43;11.20;99.90
70734;DHT22;58320;48.804;9.252;2023-11-19T07:19:09;11.20;99.90
70734;DHT22;58320;48.804;9.252;2023-11-19T07:21:35;11.10;99.90
70734;DHT22;58320;48.804;9.252;2023-11-19T07:24:05;11.10;99.90
70734;DHT22;58320;48.804;9.252;2023-11-19T07:26:31;11.20;99.90
70734;DHT22;58320;48.804;9.252;2023-11-19T07:28:57;11.20;99.90
70734;DHT22;58320;48.804;9.252;2023-11-19T07:31:23;11.20;99.90
70734;DHT22;58320;48.804;9.252;2023-11-19T07:33:49;11.20;99.90
70734;DHT22;58320;48.804;9.252;2023-11-19T07:36:15;11.20;99.90
70734;DHT22;58320;48.804;9.252;2023-11-19T07:38:42;11.20;99.90
70734;DHT22;58320;48.804;9.252;2023-11-19T07:41:08;11.20;99.90
70734;DHT22;58320;48.804;9.252;2023-11-19T07:43:39;11.20;99.90
70734;DHT22;58320;48.804;9.252;2023-11-19T07:46:10;11.20;99.90
70734;DHT22;58320;48.804;9.252;2023-11-19T07:48:38;11.30;99.90
70734;DHT22;58320;48.804;9.252;2023-11-19T07:51:04;11.30;99.90
70734;DHT22;58320;48.804;9.252;2023-11-19T07:53:30;11.30;99.90
70734;DHT22;58320;48.804;9.252;2023-11-19T07:55:56;11.30;99.90
70734;DHT22;58320;48.804;9.252;2023-11-19T07:58:22;11.20;99.90
70734;DHT22;58320;48.804;9.252;2023-11-19T08:00:48;11.30;99.90
70734;DHT22;58320;48.804;9.252;2023-11-19T08:03:13;11.30;99.90
70734;DHT22;58320;48.804;9.252;2023-11-19T08:05:39;11.30;99.90
70734;DHT22;58320;48.804;9.252;2023-11-19T08:08:05;11.40;99.90
70734;DHT22;58320;48.804;9.252;2023-11-19T08:10:30;11.40;99.90
70734;DHT22;58320;48.804;9.252;2023-11-19T08:12:58;11.50;99.90
70734;DHT22;58320;48.804;9.252;2023-11-19T08:15:24;11.50;99.90
70734;DHT22;58320;48.804;9.252;2023-11-19T08:17:49;11.60;99.20
70734;DHT22;58320;48.804;9.252;2023-11-19T08:20:16;11.70;98.70
70734;DHT22;58320;48.804;9.252;2023-11-19T08:22:42;11.70;97.80
70734;DHT22;58320;48.804;9.252;2023-11-19T08:25:08;11.80;97.70
70734;DHT22;58320;48.804;9.252;2023-11-19T08:27:34;11.80;97.50
70734;DHT22;58320;48.804;9.252;2023-11-19T08:29:59;11.80;97.00
70734;DHT22;58320;48.804;9.252;2023-11-19T08:32:28;11.90;96.60
70734;DHT22;58320;48.804;9.252;2023-11-19T08:34:54;12.10;95.60
70734;DHT22;58320;48.804;9.252;2023-11-19T08:37:20;12.20;95.10
70734;DHT22;58320;48.804;9.252;2023-11-19T08:39:47;12.30;93.70
70734;DHT22;58320;48.804;9.252;2023-11-19T08:42:14;12.40;93.70
70734;DHT22;58320;48.804;9.252;2023-11-19T08:44:39;12.50;93.70
70734;DHT22;58320;48.804;9.252;2023-11-19T08:47:09;12.60;94.00
70734;DHT22;58320;48.804;9.252;2023-11-19T08:49:38;13.00;93.10
70734;DHT22;58320;48.804;9.252;2023-11-19T08:52:05;13.30;89.80
70734;DHT22;58320;48.804;9.252;2023-11-19T08:54:32;13.30;88.20
70734;DHT22;58320;48.804;9.252;2023-11-19T08:56:58;13.20;88.40
70734;DHT22;58320;48.804;9.252;2023-11-19T08:59:25;13.10;88.70
70734;DHT22;58320;48.804;9.252;2023-11-19T09:01:50;13.10;88.60
70734;DHT22;58320;48.804;9.252;2023-11-19T09:04:16;12.90;88.10
70734;DHT22;58320;48.804;9.252;2023-11-19T09:06:42;13.00;87.80
70734;DHT22;58320;48.804;9.252;2023-11-19T09:09:08;13.10;87.30
70734;DHT22;58320;48.804;9.252;2023-11-19T09:11:35;13.20;87.00
70734;DHT22;58320;48.804;9.252;2023-11-19T09:14:02;13.40;86.70
70734;DHT22;58320;48.804;9.252;2023-11-19T09:16:27;13.70;84.60
70734;DHT22;58320;48.804;9.252;2023-11-19T09:18:53;13.90;83.80
70734;DHT22;58320;48.804;9.252;2023-11-19T09:21:19;14.10;83.70
70734;DHT22;58320;48.804;9.252;2023-11-19T09:23:44;14.30;82.60
70734;DHT22;58320;48.804;9.252;2023-11-19T09:26:13;14.20;81.70
70734;DHT22;58320;48.804;9.252;2023-11-19T09:28:39;14.20;82.10
70734;DHT22;58320;48.804;9.252;2023-11-19T09:31:13;14.00;82.40
70734;DHT22;58320;48.804;9.252;2023-11-19T09:33:39;13.90;81.80
70734;DHT22;58320;48.804;9.252;2023-11-19T09:36:05;13.80;82.80
70734;DHT22;58320;48.804;9.252;2023-11-19T09:38:31;13.80;83.30
70734;DHT22;58320;48.804;9.252;2023-11-19T09:40:58;13.70;83.40
70734;DHT22;58320;48.804;9.252;2023-11-19T09:43:27;13.70;83.40
70734;DHT22;58320;48.804;9.252;2023-11-19T09:45:55;13.80;83.10
70734;DHT22;58320;48.804;9.252;2023-11-19T09:48:21;14.00;82.30
70734;DHT22;58320;48.804;9.252;2023-11-19T09:50:50;14.10;81.30
70734;DHT22;58320;48.804;9.252;2023-11-19T09:53:17;14.30;80.90
70734;DHT22;58320;48.804;9.252;2023-11-19T09:55:44;14.50;80.40
70734;DHT22;58320;48.804;9.252;2023-11-19T09:58:12;14.80;79.90
70734;DHT22;58320;48.804;9.252;2023-11-19T10:00:40;15.10;78.60
70734;DHT22;58320;48.804;9.252;2023-11-19T10:03:08;15.30;77.10
70734;DHT22;58320;48.804;9.252;2023-11-19T10:05:35;15.40;76.60
70734;DHT22;58320;48.804;9.252;2023-11-19T10:08:02;15.70;75.90
70734;DHT22;58320;48.804;9.252;2023-11-19T10:10:28;15.80;74.90
70734;DHT22;58320;48.804;9.252;2023-11-19T10:12:55;15.90;74.10
70734;DHT22;58320;48.804;9.252;2023-11-19T10:15:22;15.90;73.60
70734;DHT22;58320;48.804;9.252;2023-11-19T10:17:50;16.20;75.30
70734;DHT22;58320;48.804;9.252;2023-11-19T10:20:16;16.50;73.20
70734;DHT22;58320;48.804;9.252;2023-11-19T10:22:42;16.80;72.60
70734;DHT22;58320;48.804;9.252;2023-11-19T10:25:27;16.80;71.00
70734;DHT22;58320;48.804;9.252;2023-11-19T10:27:55;16.80;71.40
70734;DHT22;58320;48.804;9.252;2023-11-19T10:30:23;16.80;71.10
70734;DHT22;58320;48.804;9.252;2023-11-19T10:33:09;16.70;70.40
70734;DHT22;58320;48.804;9.252;2023-11-19T10:35:58;16.40;71.60
70734;DHT22;58320;48.804;9.252;2023-11-19T10:38:25;16.20;72.30
70734;DHT22;58320;48.804;9.252;2023-11-19T10:40:52;16.10;73.90
70734;DHT22;58320;48.804;9.252;2023-11-19T10:43:20;16.00;74.00
70734;DHT22;58320;48.804;9.252;2023-11-19T10:45:50;15.90;74.20
70734;DHT22;58320;48.804;9.252;2023-11-19T10:48:16;15.80;74.70
70734;DHT22;58320;48.804;9.252;2023-11-19T10:50:43;15.90;75.00
70734;DHT22;58320;48.804;9.252;2023-11-19T10:53:11;16.50;72.80
70734;DHT22;58320;48.804;9.252;2023-11-19T10:55:41;17.70;70.50
70734;DHT22;58320;48.804;9.252;2023-11-19T10:58:09;18.80;64.30
70734;DHT22;58320;48.804;9.252;2023-11-19T11:00:51;18.80;60.30
70734;DHT22;58320;48.804;9.252;2023-11-19T11:03:21;17.90;62.50
70734;DHT22;58320;48.804;9.252;2023-11-19T11:05:51;17.60;66.70
70734;DHT22;58320;48.804;9.252;2023-11-19T11:08:18;17.70;64.00
70734;DHT22;58320;48.804;9.252;2023-11-19T11:10:53;17.50;64.70
70734;DHT22;58320;48.804;9.252;2023-11-19T11:13:19;17.40;63.00
70734;DHT22;58320;48.804;9.252;2023-11-19T11:15:45;17.20;61.60
70734;DHT22;58320;48.804;9.252;2023-11-19T11:18:12;16.80;63.00
70734;DHT22;58320;48.804;9.252;2023-11-19T11:20:39;16.50;64.70
70734;DHT22;58320;48.804;9.252;2023-11-19T11:36:08;16.30;64.60
70734;DHT22;58320;48.804;9.252;2023-11-19T11:38:40;16.30;64.70
70734;DHT22;58320;48.804;9.252;2023-11-19T11:41:17;16.20;64.70
70734;DHT22;58320;48.804;9.252;2023-11-19T11:43:49;16.00;65.30
70734;DHT22;58320;48.804;9.252;2023-11-19T11:49:03;16.30;64.10
70734;DHT22;58320;48.804;9.252;2023-11-19T11:56:39;16.60;62.40
70734;DHT22;58320;48.804;9.252;2023-11-19T11:59:20;16.60;62.20
70734;DHT22;58320;48.804;9.252;2023-11-19T12:01:58;16.50;62.40
70734;DHT22;58320;48.804;9.252;2023-11-19T12:04:26;16.30;63.10
70734;DHT22;58320;48.804;9.252;2023-11-19T12:07:13;16.10;63.70
70734;DHT22;58320;48.804;9.252;2023-11-19T12:09:45;16.60;63.50
70734;DHT22;58320;48.804;9.252;2023-11-19T12:12:26;17.70;60.70
70734;DHT22;58320;48.804;9.252;2023-11-19T12:20:04;17.70;59.00
70734;DHT22;58320;48.804;9.252;2023-11-19T12:22:42;17.50;60.30
70734;DHT22;58320;48.804;9.252;2023-11-19T12:25:10;17.90;59.70
70734;DHT22;58320;48.804;9.252;2023-11-19T12:27:50;18.20;57.70
70734;DHT22;58320;48.804;9.252;2023-11-19T12:30:24;18.00;58.00
70734;DHT22;58320;48.804;9.252;2023-11-19T12:32:51;17.60;56.90
70734;DHT22;58320;48.804;9.252;2023-11-19T12:35:19;17.60;57.30
70734;DHT22;58320;48.804;9.252;2023-11-19T12:37:46;17.40;56.50
70734;DHT22;58320;48.804;9.252;2023-11-19T12:40:18;17.70;54.70
70734;DHT22;58320;48.804;9.252;2023-11-19T12:42:52;17.70;53.30
70734;DHT22;58320;48.804;9.252;2023-11-19T12:45:22;17.60;54.60
70734;DHT22;58320;48.804;9.252;2023-11-19T12:47:49;17.50;54.00
70734;DHT22;58320;48.804;9.252;2023-11-19T12:50:17;17.30;55.40
70734;DHT22;58320;48.804;9.252;2023-11-19T12:52:55;17.40;55.00
70734;DHT22;58320;48.804;9.252;2023-11-19T12:55:29;17.40;53.50
70734;DHT22;58320;48.804;9.252;2023-11-19T12:57:55;17.20;53.80
70734;DHT22;58320;48.804;9.252;2023-11-19T13:00:23;17.20;55.00
70734;DHT22;58320;48.804;9.252;2023-11-19T13:02:55;17.40;55.50
70734;DHT22;58320;48.804;9.252;2023-11-19T13:05:26;17.60;54.10
70734;DHT22;58320;48.804;9.252;2023-11-19T13:08:05;17.60;54.10
70734;DHT22;58320;48.804;9.252;2023-11-19T13:10:52;17.50;54.40
70734;DHT22;58320;48.804;9.252;2023-11-19T13:13:21;17.40;54.80
70734;DHT22;58320;48.804;9.252;2023-11-19T13:15:47;17.30;55.20
70734;DHT22;58320;48.804;9.252;2023-11-19T13:18:16;17.40;55.30
70734;DHT22;58320;48.804;9.252;2023-11-19T13:20:42;17.30;54.30
70734;DHT22;58320;48.804;9.252;2023-11-19T13:23:08;17.30;55.30
70734;DHT22;58320;48.804;9.252;2023-11-19T13:25:34;17.20;55.70
70734;DHT22;58320;48.804;9.252;2023-11-19T13:28:00;17.20;55.20
70734;DHT22;58320;48.804;9.252;2023-11-19T13:30:26;17.10;54.50
70734;DHT22;58320;48.804;9.252;2023-11-19T13:32:53;16.90;54.90
70734;DHT22;58320;48.804;9.252;2023-11-19T13:35:20;16.60;54.60
70734;DHT22;58320;48.804;9.252;2023-11-19T13:37:47;16.40;55.70
70734;DHT22;58320;48.804;9.252;2023-11-19T13:40:13;16.20;55.60
70734;DHT22;58320;48.804;9.252;2023-11-19T13:42:41;16.10;56.00
70734;DHT22;58320;48.804;9.252;2023-11-19T13:45:11;16.00;56.20
70734;DHT22;58320;48.804;9.252;2023-11-19T13:47:39;15.90;56.10
70734;DHT22;58320;48.804;9.252;2023-11-19T13:50:13;15.90;56.70
70734;DHT22;58320;48.804;9.252;2023-11-19T13:52:41;16.00;56.80
70734;DHT22;58320;48.804;9.252;2023-11-19T13:55:09;16.10;56.80
70734;DHT22;58320;48.804;9.252;2023-11-19T13:57:36;16.10;56.60
70734;DHT22;58320;48.804;9.252;2023-11-19T14:00:07;16.20;56.30
70734;DHT22;58320;48.804;9.252;2023-11-19T14:02:42;16.10;56.20
70734;DHT22;58320;48.804;9.252;2023-11-19T14:05:12;16.00;56.00
70734;DHT22;58320;48.804;9.252;2023-11-19T14:07:38;16.00;54.40
70734;DHT22;58320;48.804;9.252;2023-11-19T14:10:05;16.00;55.90
70734;DHT22;58320;48.804;9.252;2023-11-19T14:12:32;16.00;55.50
70734;DHT22;58320;48.804;9.252;2023-11-19T14:14:58;15.80;55.10
70734;DHT22;58320;48.804;9.252;2023-11-19T14:17:25;15.60;55.60
70734;DHT22;58320;48.804;9.252;2023-11-19T14:19:51;15.40;55.70
70734;DHT22;58320;48.804;9.252;2023-11-19T14:22:17;15.30;55.60
70734;DHT22;58320;48.804;9.252;2023-11-19T14:24:42;15.20;54.90
70734;DHT22;58320;48.804;9.252;2023-11-19T14:27:09;15.20;55.30
70734;DHT22;58320;48.804;9.252;2023-11-19T14:29:36;15.10;55.20
70734;DHT22;58320;48.804;9.252;2023-11-19T14:32:02;15.20;55.10
70734;DHT22;58320;48.804;9.252;2023-11-19T14:34:30;15.30;56.00
70734;DHT22;58320;48.804;9.252;2023-11-19T14:36:56;15.40;55.80
70734;DHT22;58320;48.804;9.252;2023-11-19T14:39:22;15.40;56.00
70734;DHT22;58320;48.804;9.252;2023-11-19T14:41:48;15.40;55.90
70734;DHT22;58320;48.804;9.252;2023-11-19T14:44:15;15.30;56.70
70734;DHT22;58320;48.804;9.252;2023-11-19T14:46:41;15.20;57.00
70734;DHT22;58320;48.804;9.252;2023-11-19T14:49:06;15.10;57.70
70734;DHT22;58320;48.804;9.252;2023-11-19T14:51:36;15.10;57.90
70734;DHT22;58320;48.804;9.252;2023-11-19T14:54:03;15.00;58.50
70734;DHT22;58320;48.804;9.252;2023-11-19T14:56:30;15.00;58.60
70734;DHT22;58320;48.804;9.252;2023-11-19T14:58:55;14.90;58.80
70734;DHT22;58320;48.804;9.252;2023-11-19T15:01:21;14.90;59.10
70734;DHT22;58320;48.804;9.252;2023-11-19T15:03:47;14.90;59.10
70734;DHT22;58320;48.804;9.252;2023-11-19T15:06:12;14.90;60.10
70734;DHT22;58320;48.804;9.252;2023-11-19T15:08:38;14.90;60.00
70734;DHT22;58320;48.804;9.252;2023-11-19T15:11:04;14.80;60.40
70734;DHT22;58320;48.804;9.252;2023-11-19T15:13:32;14.80;60.30
70734;DHT22;58320;48.804;9.252;2023-11-19T15:15:58;14.80;60.40
70734;DHT22;58320;48.804;9.252;2023-11-19T15:18:24;14.70;60.10
70734;DHT22;58320;48.804;9.252;2023-11-19T15:20:50;14.70;60.40
70734;DHT22;58320;48.804;9.252;2023-11-19T15:23:16;14.60;60.50
70734;DHT22;58320;48.804;9.252;2023-11-19T15:25:44;14.50;59.20
70734;DHT22;58320;48.804;9.252;2023-11-19T15:28:10;14.40;59.20
70734;DHT22;58320;48.804;9.252;2023-11-19T15:30:37;14.30;59.30
70734;DHT22;58320;48.804;9.252;2023-11-19T15:33:02;14.30;59.60
70734;DHT22;58320;48.804;9.252;2023-11-19T15:35:28;14.20;59.00
70734;DHT22;58320;48.804;9.252;2023-11-19T15:37:54;14.20;58.80
70734;DHT22;58320;48.804;9.252;2023-11-19T15:40:21;14.20;59.00
70734;DHT22;58320;48.804;9.252;2023-11-19T15:42:47;14.10;59.60
70734;DHT22;58320;48.804;9.252;2023-11-19T15:45:13;14.00;60.00
70734;DHT22;58320;48.804;9.252;2023-11-19T15:47:39;14.00;60.20
70734;DHT22;58320;48.804;9.252;2023-11-19T15:50:05;13.90;60.70
70734;DHT22;58320;48.804;9.252;2023-11-19T15:52:32;13.80;61.30
70734;DHT22;58320;48.804;9.252;2023-11-19T15:54:58;13.70;61.60
70734;DHT22;58320;48.804;9.252;2023-11-19T15:57:24;13.60;61.90
70734;DHT22;58320;48.804;9.252;2023-11-19T15:59:50;13.50;62.60
70734;DHT22;58320;48.804;9.252;2023-11-19T16:02:16;13.50;62.80
70734;DHT22;58320;48.804;9.252;2023-11-19T16:04:42;13.40;63.40
70734;DHT22;58320;48.804;9.252;2023-11-19T16:07:13;13.30;63.80